BVI weather

Birdsville Airport
Queensland, Australia

Public forecast

Using degrees Celsius for public forecast. Weather courtesy of forecast.io.

Current aviation weather report (METAR) for Birdsville Airport

Retrieved 2019/10/22 15:00 UTC (46 minutes ago):

YBDV 221500Z AUTO 15006KT //// // ////// 22/M08 Q1015

Closest aviation forecast (TAF) to Birdsville Airport

Closest forecast is Alice Springs Airport, 322.1 nm (596.6 km) WNW. Retrieved 2019/10/22 12:00 UTC (4 hours ago):

TAF YBAS 221104Z 2212/2312 12008KT CAVOK FM221600 29005KT CAVOK FM222300 07010KT CAVOK FM230200 14007KT CAVOK